Airfield :
LOGIN :

Register | Disclaimer

   EN    FR    IT 

 










Legend :    VFR   Marginal VFR   IFR   Intensive IFR   Very Intensive IFR
Visi :
Ceiling :
>= 8 km
>= 3000ft
5 to 8 km
1000 to 3000 ft
1500m to 5 km
500 to 1000 ft
800 to 1500m
200 to 500 ft
< 800m
< 200 ft
Symbols :   Thunderstorms  Fog  Heavy snow  Heavy precipitations  Wind > 20 kt
SIGMETs :     Misc.  Thunderstorms  Icing  Turbulence  Mountain Waves  Volcanic Ashes






- Airport Elevation : 242 ft
- IATA code : DUB


EIDW - Dublin

CURRENT METAR :
  • 200600Z 15018G28KT 110V170 9999 -RA SCT005 BKN010 BKN024 09/09 Q1002 NOSIG

EXPIRED METARs :
  • 200530Z 15016KT 9000 RA SCT005 BKN010 09/09 Q1002 NOSIG
  • 200500Z 15016G26KT 120V180 9000 -RA SCT004 BKN010 09/09 Q1002 NOSIG
  • 200430Z 15017G27KT 6000 RA SCT003 BKN006 09/09 Q1002 NOSIG
  • 200400Z 16014G24KT 6000 RA SCT003 BKN007 08/08 Q1003 NOSIG

TAF TAF EIDW
Valid from the 20 at 06:00 until the 21 at 06:00 UTC


200500Z 2006/2106 15020G32KT 9999 SCT012 BKN027
PROB40
TEMPO 2006/2008 15023G37KT
TEMPO 2006/2009 4000 RA SCT003 BKN007
BECMG 2007/2009 16014G25KT
PROB40
TEMPO 2009/2014 5000 -RA BKN012
BECMG 2010/2012 16018G30KT
BECMG 2013/2015 15020G35KT
BECMG 2019/2021 14018G30KT
TEMPO 2103/2106 5000 -SHRA BKN012 SCT020CB



MET'MAP, your aeronautical weather chart ! - Copyright ORBIFLY December 2007 - Disclaimer

ORBIFLY MET'MAP TEAM :

Programming & Development : Alexandra Zaïnal
Concept & Development : Baudouin d'Aumeries
Co-Development & Prog : Marc-Olivier Méhu
Technical & hardware support : Manuel Goepfert

Contact : metmap@orbifly.com




SOURCES & CREDITS :

   NOAA